createdAt,value
2023-03-10T00:01:10.359Z,98720.19
2023-03-10T00:03:38.073Z,98719.16
2023-03-10T00:06:06.381Z,98712.19
2023-03-10T00:08:34.061Z,98714.34
2023-03-10T00:11:02.041Z,98709.66
2023-03-10T00:13:29.432Z,98707.63
2023-03-10T00:15:57.291Z,98708.25
2023-03-10T00:18:25.048Z,98711.28
2023-03-10T00:20:53.992Z,98708.19
2023-03-10T00:23:21.819Z,98713.78
2023-03-10T00:25:57.000Z,98718.63
2023-03-10T00:28:25.882Z,98727.50
2023-03-10T00:31:05.115Z,98719.38
2023-03-10T00:33:34.037Z,98708.47
2023-03-10T00:36:29.417Z,98704.97
2023-03-10T00:38:57.810Z,98697.81
2023-03-10T00:41:28.072Z,98695.28
2023-03-10T00:43:55.561Z,98691.09
2023-03-10T00:46:24.200Z,98698.53
2023-03-10T00:48:52.276Z,98695.16
2023-03-10T00:51:20.474Z,98689.19
2023-03-10T00:53:48.492Z,98681.00
2023-03-10T00:56:18.128Z,98683.84
2023-03-10T00:58:46.362Z,98682.06
2023-03-10T01:01:17.680Z,98688.41
2023-03-10T01:03:45.846Z,98683.44
2023-03-10T01:06:13.617Z,98688.19
2023-03-10T01:08:41.285Z,98677.53
2023-03-10T01:11:09.391Z,98676.19
2023-03-10T01:13:37.917Z,98670.00
2023-03-10T01:16:06.906Z,98670.72
2023-03-10T01:18:34.694Z,98664.75
2023-03-10T01:21:03.953Z,98663.94
2023-03-10T01:23:31.907Z,98657.25
2023-03-10T01:25:59.613Z,98662.50
2023-03-10T01:28:26.960Z,98657.13
2023-03-10T01:30:54.366Z,98660.00
2023-03-10T01:33:22.132Z,98647.03
2023-03-10T01:35:49.578Z,98640.97
2023-03-10T01:38:17.740Z,98644.41
2023-03-10T01:40:50.499Z,98643.56
2023-03-10T01:43:25.973Z,98641.06
2023-03-10T01:45:53.654Z,98644.72
2023-03-10T01:48:22.453Z,98638.66
2023-03-10T01:50:52.816Z,98641.12
2023-03-10T01:53:21.268Z,98626.72
2023-03-10T01:55:53.496Z,98623.34
2023-03-10T01:58:22.210Z,98612.19
2023-03-10T02:00:52.637Z,98618.31
2023-03-10T02:03:27.351Z,98617.31
2023-03-10T02:05:57.623Z,98609.84
2023-03-10T02:08:26.918Z,98607.06
2023-03-10T02:10:54.706Z,98608.19
2023-03-10T02:13:22.510Z,98606.63
2023-03-10T02:15:49.909Z,98601.44
2023-03-10T02:18:18.267Z,98601.59
2023-03-10T02:21:00.476Z,98599.91
2023-03-10T02:23:41.036Z,98593.34
2023-03-10T02:26:18.744Z,98588.72
2023-03-10T02:28:48.260Z,98587.84
2023-03-10T02:31:16.895Z,98589.63
2023-03-10T02:33:46.128Z,98584.44
2023-03-10T02:36:16.820Z,98579.31
2023-03-10T02:38:44.843Z,98587.34
2023-03-10T02:41:16.094Z,98584.63
2023-03-10T02:43:43.749Z,98584.81
2023-03-10T02:46:12.531Z,98582.38
2023-03-10T02:48:41.235Z,98566.66
2023-03-10T02:51:11.832Z,98574.53
2023-03-10T02:53:41.372Z,98566.78
2023-03-10T02:56:09.551Z,98571.13
2023-03-10T02:58:37.657Z,98565.00
2023-03-10T03:01:06.505Z,98568.53
2023-03-10T03:03:35.078Z,98560.94
2023-03-10T03:06:02.828Z,98556.56
2023-03-10T03:08:30.348Z,98547.13
2023-03-10T03:10:58.246Z,98547.13
2023-03-10T03:13:25.866Z,98545.25
2023-03-10T03:15:53.718Z,98538.37
2023-03-10T03:18:22.021Z,98540.28
2023-03-10T03:20:49.726Z,98533.50
2023-03-10T03:23:17.210Z,98534.25
2023-03-10T03:25:45.182Z,98535.13
2023-03-10T03:28:13.410Z,98520.63
2023-03-10T03:30:41.436Z,98521.44
2023-03-10T03:33:09.286Z,98513.50
2023-03-10T03:35:37.753Z,98510.91
2023-03-10T03:38:06.535Z,98506.56
2023-03-10T03:40:35.746Z,98503.44
2023-03-10T03:43:04.853Z,98497.41
2023-03-10T03:45:33.219Z,98494.72
2023-03-10T03:48:01.353Z,98491.16
2023-03-10T03:50:30.297Z,98494.72
2023-03-10T03:52:58.174Z,98489.66
2023-03-10T03:55:28.868Z,98483.75
2023-03-10T03:57:56.321Z,98482.09
2023-03-10T04:00:24.876Z,98472.53
2023-03-10T04:02:53.871Z,98470.78
2023-03-10T04:05:21.346Z,98475.22
2023-03-10T04:07:49.873Z,98466.81
2023-03-10T04:10:20.641Z,98461.63
2023-03-10T04:12:48.432Z,98458.31
2023-03-10T04:15:15.977Z,98449.53
2023-03-10T04:17:43.664Z,98451.47
2023-03-10T04:20:14.247Z,98452.19
2023-03-10T04:22:42.194Z,98453.84
2023-03-10T04:25:10.767Z,98448.03
2023-03-10T04:27:38.207Z,98452.22
2023-03-10T04:30:07.133Z,98452.19
2023-03-10T04:32:35.436Z,98447.84
2023-03-10T04:35:04.904Z,98445.47
2023-03-10T04:37:33.280Z,98445.38
2023-03-10T04:40:03.292Z,98447.91
2023-03-10T04:42:30.987Z,98446.28
2023-03-10T04:44:58.443Z,98442.91
2023-03-10T04:47:26.162Z,98442.03
2023-03-10T04:49:53.830Z,98447.25
2023-03-10T04:52:21.211Z,98435.12
2023-03-10T04:54:49.055Z,98439.47
2023-03-10T04:57:16.760Z,98433.50
2023-03-10T04:59:44.521Z,98432.56
2023-03-10T05:02:12.487Z,98428.22
2023-03-10T05:04:40.688Z,98429.31
2023-03-10T05:07:09.544Z,98425.06
2023-03-10T05:09:38.080Z,98422.41
2023-03-10T05:12:06.981Z,98410.19
2023-03-10T05:14:34.967Z,98414.69
2023-03-10T05:17:02.729Z,98411.03
2023-03-10T05:19:30.736Z,98409.38
2023-03-10T05:21:58.341Z,98405.91
2023-03-10T05:24:26.093Z,98409.47
2023-03-10T05:26:53.470Z,98412.81
2023-03-10T05:29:21.057Z,98403.25
2023-03-10T05:31:49.111Z,98398.19
2023-03-10T05:34:16.921Z,98394.81
2023-03-10T05:36:44.758Z,98389.50
2023-03-10T05:39:12.521Z,98393.91
2023-03-10T05:41:40.332Z,98386.97
2023-03-10T05:44:07.986Z,98392.06
2023-03-10T05:46:35.973Z,98381.66
2023-03-10T05:49:03.363Z,98382.53
2023-03-10T05:51:31.041Z,98383.47
2023-03-10T05:54:01.169Z,98378.16
2023-03-10T05:56:29.008Z,98379.16
2023-03-10T05:58:56.577Z,98376.41
2023-03-10T06:01:24.696Z,98378.78
2023-03-10T06:03:52.395Z,98378.53
2023-03-10T06:06:19.758Z,98369.78
2023-03-10T06:08:47.178Z,98361.09
2023-03-10T06:11:15.082Z,98360.63
2023-03-10T06:13:42.469Z,98363.88
2023-03-10T06:16:11.578Z,98366.16
2023-03-10T06:18:39.348Z,98362.47
2023-03-10T06:21:08.462Z,98363.34
2023-03-10T06:23:35.956Z,98358.44
2023-03-10T06:26:13.093Z,98360.56
2023-03-10T06:28:42.757Z,98354.94
2023-03-10T06:31:18.834Z,98355.75
2023-03-10T06:33:46.510Z,98355.19
2023-03-10T06:36:15.473Z,98347.22
2023-03-10T06:38:42.881Z,98345.47
2023-03-10T06:41:11.790Z,98340.47
2023-03-10T06:43:39.845Z,98342.59
2023-03-10T06:46:08.547Z,98346.13
2023-03-10T06:48:37.284Z,98346.34
2023-03-10T06:51:14.742Z,98344.69
2023-03-10T06:53:42.420Z,98339.97
2023-03-10T06:56:17.881Z,98336.44
2023-03-10T06:58:45.784Z,98338.19
2023-03-10T07:01:29.038Z,98335.81
2023-03-10T07:03:57.385Z,98339.72
2023-03-10T07:06:25.541Z,98333.91
2023-03-10T07:08:54.336Z,98332.50
2023-03-10T07:11:22.805Z,98332.00
2023-03-10T07:13:50.976Z,98322.94
2023-03-10T07:16:18.465Z,98329.38
2023-03-10T07:18:45.919Z,98327.47
2023-03-10T07:21:17.561Z,98323.69
2023-03-10T07:23:45.156Z,98328.53
2023-03-10T07:26:16.336Z,98332.69
2023-03-10T07:28:44.409Z,98322.53
2023-03-10T07:31:13.731Z,98333.03
2023-03-10T07:33:41.416Z,98333.03
2023-03-10T07:36:12.119Z,98329.56
2023-03-10T07:38:39.744Z,98326.13
2023-03-10T07:41:13.726Z,98324.37
2023-03-10T07:43:41.422Z,98327.19
2023-03-10T07:46:12.242Z,98319.28
2023-03-10T07:48:39.949Z,98306.41
2023-03-10T07:51:07.928Z,98311.00
2023-03-10T07:53:35.933Z,98302.37
2023-03-10T07:56:08.049Z,98298.94
2023-03-10T07:58:36.152Z,98289.56
2023-03-10T08:01:04.220Z,98296.13
2023-03-10T08:03:34.060Z,98297.62
2023-03-10T08:06:02.503Z,98291.63
2023-03-10T08:08:29.924Z,98284.22
2023-03-10T08:11:05.409Z,98284.03
2023-03-10T08:13:33.745Z,98286.47
2023-03-10T08:16:02.229Z,98289.47
2023-03-10T08:18:30.625Z,98272.88
2023-03-10T08:20:58.258Z,98268.91
2023-03-10T08:23:25.995Z,98267.91
2023-03-10T08:25:53.368Z,98267.78
2023-03-10T08:28:20.889Z,98264.38
2023-03-10T08:31:02.970Z,98263.50
2023-03-10T08:33:31.396Z,98259.19
2023-03-10T08:36:04.366Z,98250.28
2023-03-10T08:38:31.893Z,98256.84
2023-03-10T08:41:09.199Z,98246.06
2023-03-10T08:43:36.735Z,98239.41
2023-03-10T08:46:06.173Z,98240.41
2023-03-10T08:48:35.755Z,98235.84
2023-03-10T08:51:03.959Z,98232.41
2023-03-10T08:53:33.750Z,98232.94
2023-03-10T08:56:01.112Z,98224.19
2023-03-10T08:58:28.491Z,98229.25
2023-03-10T09:00:56.438Z,98223.66
2023-03-10T09:03:24.558Z,98217.75
2023-03-10T09:05:52.345Z,98218.28
2023-03-10T09:08:20.070Z,98219.19
2023-03-10T09:10:47.640Z,98207.25
2023-03-10T09:13:15.208Z,98218.28
2023-03-10T09:15:42.862Z,98214.16
2023-03-10T09:18:11.952Z,98209.16
2023-03-10T09:20:41.429Z,98210.06
2023-03-10T09:23:10.404Z,98197.25
2023-03-10T09:25:40.347Z,98202.78
2023-03-10T09:28:08.571Z,98188.69
2023-03-10T09:30:38.609Z,98186.78
2023-03-10T09:33:08.735Z,98182.66
2023-03-10T09:35:41.591Z,98178.59
2023-03-10T09:38:12.979Z,98170.69
2023-03-10T09:40:46.139Z,98176.69
2023-03-10T09:43:20.410Z,98173.63
2023-03-10T09:45:58.201Z,98160.78
2023-03-10T09:48:26.481Z,98158.03
2023-03-10T09:50:56.488Z,98162.84
2023-03-10T09:53:51.541Z,98161.41
2023-03-10T09:56:21.471Z,98156.87
2023-03-10T09:58:50.436Z,98149.69
2023-03-10T10:01:21.443Z,98146.66
2023-03-10T10:03:54.400Z,98136.13
2023-03-10T10:06:28.131Z,98139.53
2023-03-10T10:09:14.316Z,98136.78
2023-03-10T10:11:41.729Z,98128.19
2023-03-10T10:14:27.684Z,98130.62
2023-03-10T10:17:19.120Z,98121.16
2023-03-10T10:19:48.065Z,98123.44
2023-03-10T10:22:24.873Z,98120.00
2023-03-10T10:25:15.346Z,98104.94
2023-03-10T10:27:43.220Z,98095.41
2023-03-10T10:30:28.998Z,98088.63
2023-03-10T10:33:04.794Z,98078.78
2023-03-10T10:35:41.029Z,98082.75
2023-03-10T10:38:11.364Z,98082.28
2023-03-10T10:40:50.792Z,98078.91
2023-03-10T10:43:20.357Z,98078.22
2023-03-10T10:45:57.558Z,98078.97
2023-03-10T10:48:40.477Z,98069.22
2023-03-10T10:51:20.780Z,98065.72
2023-03-10T10:53:48.312Z,98067.97
2023-03-10T10:56:18.185Z,98061.94
2023-03-10T10:59:01.217Z,98065.53
2023-03-10T11:01:55.807Z,98049.87
2023-03-10T11:04:24.956Z,98045.16
2023-03-10T11:06:53.160Z,98038.06
2023-03-10T11:09:23.268Z,98034.56
2023-03-10T11:12:12.441Z,98018.87
2023-03-10T11:14:52.593Z,98019.25
2023-03-10T11:17:28.750Z,98008.34
2023-03-10T11:20:25.755Z,97998.69
2023-03-10T11:22:55.664Z,97997.41
2023-03-10T11:25:39.002Z,97991.88
2023-03-10T11:28:28.089Z,97996.28
2023-03-10T11:31:27.633Z,97985.50
2023-03-10T11:34:17.085Z,97977.81
2023-03-10T11:37:01.610Z,97976.91
2023-03-10T11:39:35.671Z,97963.97
2023-03-10T11:42:11.090Z,97960.50
2023-03-10T11:44:43.159Z,97963.81
2023-03-10T11:47:25.676Z,97950.00
2023-03-10T11:50:07.646Z,97944.38
2023-03-10T11:52:35.381Z,97936.75
2023-03-10T11:55:15.124Z,97924.25
2023-03-10T11:57:46.133Z,97913.16
2023-03-10T12:00:26.149Z,97920.56
2023-03-10T12:03:12.279Z,97919.34
2023-03-10T12:05:45.357Z,97916.84
2023-03-10T12:08:14.023Z,97902.38
2023-03-10T12:10:42.268Z,97902.97
2023-03-10T12:13:23.623Z,97900.38
2023-03-10T12:15:54.788Z,97887.69
2023-03-10T12:18:23.931Z,97882.84
2023-03-10T12:21:15.343Z,97884.09
2023-03-10T12:23:45.312Z,97877.31
2023-03-10T12:26:13.286Z,97866.34
2023-03-10T12:28:41.034Z,97867.41
2023-03-10T12:31:11.445Z,97860.16
2023-03-10T12:33:46.430Z,97857.94
2023-03-10T12:36:19.943Z,97854.81
2023-03-10T12:38:57.401Z,97854.56
2023-03-10T12:41:27.896Z,97839.81
2023-03-10T12:43:55.553Z,97844.84
2023-03-10T12:47:00.682Z,97847.69
2023-03-10T12:49:28.278Z,97831.28
2023-03-10T12:52:02.489Z,97833.88
2023-03-10T12:55:04.880Z,97826.84
2023-03-10T12:57:38.058Z,97816.59
2023-03-10T13:00:24.213Z,97812.41
2023-03-10T13:03:13.365Z,97810.62
2023-03-10T13:06:02.932Z,97804.47
2023-03-10T13:08:39.326Z,97791.69
2023-03-10T13:11:31.527Z,97790.00
2023-03-10T13:14:05.097Z,97787.00
2023-03-10T13:16:33.593Z,97787.28
2023-03-10T13:19:01.391Z,97781.41
2023-03-10T13:21:39.519Z,97795.50
2023-03-10T13:24:29.564Z,97792.06
2023-03-10T13:27:18.848Z,97797.47
2023-03-10T13:29:59.450Z,97788.38
2023-03-10T13:32:27.074Z,97781.97
2023-03-10T13:34:56.264Z,97778.09
2023-03-10T13:37:24.361Z,97771.31
2023-03-10T13:39:52.188Z,97761.34
2023-03-10T13:42:40.709Z,97747.38
2023-03-10T13:45:21.953Z,97748.09
2023-03-10T13:47:51.054Z,97759.34
2023-03-10T13:50:18.650Z,97760.37
2023-03-10T13:52:54.585Z,97760.19
2023-03-10T13:55:22.260Z,97755.84
2023-03-10T13:57:50.236Z,97749.94
2023-03-10T14:00:20.545Z,97751.41
2023-03-10T14:02:49.500Z,97749.25
2023-03-10T14:05:39.172Z,97747.78
2023-03-10T14:08:15.950Z,97750.16
2023-03-10T14:10:43.361Z,97749.03
2023-03-10T14:13:42.946Z,97742.22
2023-03-10T14:16:11.110Z,97744.59
2023-03-10T14:18:41.459Z,97745.56
2023-03-10T14:21:27.089Z,97753.75
2023-03-10T14:23:56.952Z,97749.72
2023-03-10T14:26:25.033Z,97747.06
2023-03-10T14:28:52.447Z,97747.06
2023-03-10T14:31:22.750Z,97739.41
2023-03-10T14:33:50.791Z,97733.16
2023-03-10T14:36:18.426Z,97729.22
2023-03-10T14:38:46.220Z,97724.00
2023-03-10T14:41:14.168Z,97726.66
2023-03-10T14:43:42.326Z,97706.22
2023-03-10T14:46:11.459Z,97713.87
2023-03-10T14:48:41.835Z,97714.16
2023-03-10T14:51:29.068Z,97703.97
2023-03-10T14:54:02.022Z,97701.63
2023-03-10T14:56:30.095Z,97705.50
2023-03-10T14:59:02.067Z,97693.47
2023-03-10T15:01:30.697Z,97705.97
2023-03-10T15:03:58.146Z,97697.53
2023-03-10T15:06:25.539Z,97688.34
2023-03-10T15:08:53.209Z,97697.16
2023-03-10T15:11:35.618Z,97708.34
2023-03-10T15:14:12.542Z,97705.34
2023-03-10T15:16:39.913Z,97698.94
2023-03-10T15:19:14.209Z,97697.19
2023-03-10T15:21:41.584Z,97694.34
2023-03-10T15:24:09.394Z,97695.38
2023-03-10T15:26:36.771Z,97698.84
2023-03-10T15:29:04.120Z,97701.78
2023-03-10T15:31:31.801Z,97707.59
2023-03-10T15:33:59.166Z,97710.03
2023-03-10T15:36:26.613Z,97709.38
2023-03-10T15:38:54.365Z,97710.28
2023-03-10T15:41:21.789Z,97712.19
2023-03-10T15:43:50.378Z,97707.66
2023-03-10T15:46:18.349Z,97717.50
2023-03-10T15:48:45.789Z,97712.19
2023-03-10T15:51:17.410Z,97714.50
2023-03-10T15:53:45.333Z,97716.19
2023-03-10T15:56:13.098Z,97722.56
2023-03-10T15:58:40.576Z,97724.44
2023-03-10T16:01:15.337Z,97731.56
2023-03-10T16:03:43.659Z,97717.50
2023-03-10T16:06:12.439Z,97709.38
2023-03-10T16:08:40.164Z,97709.19
2023-03-10T16:11:15.118Z,97696.22
2023-03-10T16:13:45.177Z,97696.00
2023-03-10T16:16:13.123Z,97692.22
2023-03-10T16:18:40.469Z,97692.31
2023-03-10T16:21:08.045Z,97692.19
2023-03-10T16:23:35.706Z,97698.56
2023-03-10T16:26:13.594Z,97693.78
2023-03-10T16:28:43.592Z,97687.38
2023-03-10T16:31:12.869Z,97689.16
2023-03-10T16:33:41.548Z,97685.25
2023-03-10T16:36:13.222Z,97698.66
2023-03-10T16:38:41.006Z,97691.19
2023-03-10T16:41:09.508Z,97699.44
2023-03-10T16:43:37.337Z,97702.34
2023-03-10T16:46:09.270Z,97701.50
2023-03-10T16:48:41.949Z,97707.53
2023-03-10T16:51:31.005Z,97699.81
2023-03-10T16:54:03.557Z,97713.31
2023-03-10T16:56:32.691Z,97718.00
2023-03-10T16:59:00.132Z,97720.66
2023-03-10T17:01:27.825Z,97731.69
2023-03-10T17:03:56.049Z,97731.97
2023-03-10T17:06:31.088Z,97738.03
2023-03-10T17:09:00.258Z,97731.59
2023-03-10T17:11:55.345Z,97745.75
2023-03-10T17:14:23.716Z,97739.19
2023-03-10T17:16:51.225Z,97743.44
2023-03-10T17:19:21.146Z,97741.28
2023-03-10T17:21:50.606Z,97739.94
2023-03-10T17:24:19.959Z,97730.63
2023-03-10T17:26:47.683Z,97739.22
2023-03-10T17:29:15.645Z,97737.41
2023-03-10T17:31:43.971Z,97733.56
2023-03-10T17:34:12.990Z,97735.88
2023-03-10T17:36:40.663Z,97730.78
2023-03-10T17:39:08.288Z,97728.97
2023-03-10T17:41:36.579Z,97733.41
2023-03-10T17:44:06.771Z,97729.56
2023-03-10T17:46:34.270Z,97727.25
2023-03-10T17:49:01.796Z,97727.91
2023-03-10T17:51:30.854Z,97732.38
2023-03-10T17:54:00.955Z,97728.16
2023-03-10T17:56:29.004Z,97732.13
2023-03-10T17:58:57.083Z,97740.91
2023-03-10T18:01:27.558Z,97732.47
2023-03-10T18:03:56.296Z,97727.03
2023-03-10T18:06:26.292Z,97728.53
2023-03-10T18:08:56.231Z,97727.03
2023-03-10T18:11:25.594Z,97732.63
2023-03-10T18:13:53.248Z,97733.47
2023-03-10T18:16:26.113Z,97771.06
2023-03-10T18:18:54.704Z,97771.03
2023-03-10T18:21:22.458Z,97779.41
2023-03-10T18:23:51.191Z,97772.69
2023-03-10T18:26:32.351Z,97781.41
2023-03-10T18:28:59.940Z,97771.19
2023-03-10T18:31:33.096Z,97770.44
2023-03-10T18:34:00.874Z,97765.13
2023-03-10T18:36:29.375Z,97764.12
2023-03-10T18:38:57.055Z,97755.84
2023-03-10T18:41:26.783Z,97753.44
2023-03-10T18:43:54.486Z,97759.72
2023-03-10T18:46:22.345Z,97757.56
2023-03-10T18:48:55.432Z,97750.91
2023-03-10T18:51:27.774Z,97751.78
2023-03-10T18:53:55.464Z,97754.31
2023-03-10T18:56:25.660Z,97766.31
2023-03-10T18:58:53.347Z,97772.06
2023-03-10T19:01:20.868Z,97783.75
2023-03-10T19:03:48.651Z,97796.06
2023-03-10T19:06:16.333Z,97800.78
2023-03-10T20:03:54.427Z,97781.63
2023-03-10T20:06:23.548Z,97781.63
2023-03-10T20:08:51.883Z,97785.31
2023-03-10T20:11:19.849Z,97793.97
2023-03-10T20:13:47.629Z,97797.81
2023-03-10T20:16:16.077Z,97799.63
2023-03-10T20:18:43.442Z,97801.28
2023-03-10T20:21:11.377Z,97796.19
2023-03-10T20:23:39.099Z,97788.22
2023-03-10T20:26:09.233Z,97780.44
2023-03-10T20:28:39.499Z,97764.81
2023-03-10T20:31:07.509Z,97740.97
2023-03-10T20:33:36.102Z,97717.22
2023-03-10T20:36:04.291Z,97699.37
2023-03-10T20:38:31.617Z,97679.38
2023-03-10T20:41:02.225Z,97671.63
2023-03-10T20:43:30.245Z,97664.44
2023-03-10T20:45:57.628Z,97658.31
2023-03-10T20:48:24.977Z,97674.28
2023-03-10T20:50:56.141Z,97692.31
2023-03-10T20:53:23.622Z,97711.06
2023-03-10T20:55:51.174Z,97728.28
2023-03-10T20:58:18.922Z,97723.03
2023-03-10T21:00:47.676Z,97726.59
2023-03-10T21:03:15.064Z,97733.94
2023-03-10T21:05:42.708Z,97729.84
2023-03-10T21:08:10.405Z,97730.53
2023-03-10T21:10:38.035Z,97723.91
2023-03-10T21:13:06.055Z,97726.03
2023-03-10T21:15:33.448Z,97735.50
2023-03-10T21:18:00.818Z,97729.13
2023-03-10T21:20:28.511Z,97730.97
2023-03-10T21:22:55.951Z,97728.66
2023-03-10T21:25:24.983Z,97744.53
2023-03-10T21:27:58.583Z,97740.16
2023-03-10T21:30:31.690Z,97743.06
2023-03-10T21:33:00.070Z,97737.00
2023-03-10T21:35:30.365Z,97739.31
2023-03-10T21:37:59.276Z,97745.66
2023-03-10T21:40:27.058Z,97751.75
2023-03-10T21:42:54.475Z,97746.50
2023-03-10T21:45:23.896Z,97749.09
2023-03-10T21:47:51.606Z,97752.81
2023-03-10T21:50:19.184Z,97746.66
2023-03-10T21:52:47.998Z,97749.34
2023-03-10T21:55:19.835Z,97751.06
2023-03-10T21:57:47.426Z,97767.97
2023-03-10T22:00:16.356Z,97773.19
2023-03-10T22:02:43.977Z,97772.62
2023-03-10T22:05:15.479Z,97768.16
2023-03-10T22:07:43.051Z,97772.78
2023-03-10T22:10:12.238Z,97770.81
2023-03-10T22:12:39.693Z,97768.97
2023-03-10T22:15:09.041Z,97773.50
2023-03-10T22:17:36.731Z,97764.03
2023-03-10T22:20:07.000Z,97756.34
2023-03-10T22:22:34.696Z,97755.31
2023-03-10T22:25:02.402Z,97759.31
2023-03-10T22:27:29.748Z,97756.22
2023-03-10T22:29:57.092Z,97752.94
2023-03-10T22:32:24.785Z,97747.03
2023-03-10T22:34:52.246Z,97743.69
2023-03-10T22:37:19.606Z,97732.78
2023-03-10T22:39:47.426Z,97732.91
2023-03-10T22:42:14.765Z,97727.69
2023-03-10T22:44:42.440Z,97728.22
2023-03-10T22:47:10.202Z,97726.00
2023-03-10T22:49:37.588Z,97732.22
2023-03-10T22:52:06.984Z,97731.22
2023-03-10T22:54:34.663Z,97736.75
2023-03-10T22:57:02.047Z,97739.34
2023-03-10T22:59:29.431Z,97742.88
2023-03-10T23:01:57.145Z,97753.50
2023-03-10T23:04:24.594Z,97754.47
2023-03-10T23:06:51.977Z,97744.19
2023-03-10T23:09:19.785Z,97744.97
2023-03-10T23:11:48.958Z,97745.50
2023-03-10T23:14:16.465Z,97747.06
2023-03-10T23:16:44.109Z,97740.78
2023-03-10T23:19:11.480Z,97743.94
2023-03-10T23:21:39.232Z,97746.84
2023-03-10T23:24:07.007Z,97754.06
2023-03-10T23:26:36.646Z,97764.78
2023-03-10T23:29:04.415Z,97774.19
2023-03-10T23:31:32.080Z,97766.84
2023-03-10T23:33:59.455Z,97765.41
2023-03-10T23:36:26.841Z,97779.41
2023-03-10T23:38:54.492Z,97775.16
2023-03-10T23:41:21.899Z,97774.69
2023-03-10T23:43:51.548Z,97764.00
2023-03-10T23:46:21.808Z,97773.75
2023-03-10T23:48:49.598Z,97775.91
2023-03-10T23:51:17.667Z,97773.91
2023-03-10T23:53:45.515Z,97775.16
2023-03-10T23:56:12.893Z,97767.13
2023-03-10T23:58:40.267Z,97768.97
